createdAt,value
2018-07-11T00:01:55.623Z,15.80
2018-07-11T00:04:26.841Z,15.60
2018-07-11T00:06:57.161Z,16.30
2018-07-11T00:09:27.313Z,14.93
2018-07-11T00:11:58.558Z,15.27
2018-07-11T00:14:28.722Z,14.60
2018-07-11T00:17:03.955Z,15.80
2018-07-11T00:19:34.543Z,14.70
2018-07-11T00:22:05.008Z,15.47
2018-07-11T00:24:35.546Z,14.60
2018-07-11T00:27:06.529Z,16.03
2018-07-11T00:29:35.954Z,14.77
2018-07-11T00:32:06.569Z,15.70
2018-07-11T00:34:36.759Z,16.80
2018-07-11T00:37:06.957Z,17.27
2018-07-11T00:39:37.125Z,17.73
2018-07-11T00:42:07.381Z,19.07
2018-07-11T00:44:37.655Z,18.43
2018-07-11T00:47:07.830Z,17.77
2018-07-11T00:49:38.237Z,19.83
2018-07-11T00:52:08.634Z,18.70
2018-07-11T00:54:38.702Z,19.57
2018-07-11T00:57:09.026Z,20.80
2018-07-11T00:59:42.398Z,21.30
2018-07-11T01:02:12.862Z,20.70
2018-07-11T01:04:43.295Z,20.77
2018-07-11T01:07:13.383Z,20.67
2018-07-11T01:09:48.787Z,20.50
2018-07-11T01:12:19.695Z,22.03
2018-07-11T01:14:49.902Z,21.37
2018-07-11T01:17:24.870Z,18.83
2018-07-11T01:19:55.313Z,18.87
2018-07-11T01:22:24.943Z,19.23
2018-07-11T01:24:54.818Z,17.30
2018-07-11T01:27:24.979Z,16.77
2018-07-11T01:29:55.225Z,14.87
2018-07-11T01:32:25.470Z,15.17
2018-07-11T01:34:55.814Z,14.07
2018-07-11T01:37:25.947Z,15.40
2018-07-11T01:39:56.425Z,14.13
2018-07-11T01:42:26.696Z,14.53
2018-07-11T01:44:57.011Z,13.93
2018-07-11T01:47:27.156Z,14.40
2018-07-11T01:49:57.562Z,14.03
2018-07-11T01:52:32.053Z,13.53
2018-07-11T01:55:02.225Z,14.63
2018-07-11T01:57:32.568Z,15.90
2018-07-11T02:00:03.069Z,15.23
2018-07-11T02:02:33.324Z,13.40
2018-07-11T02:05:03.970Z,15.07
2018-07-11T02:07:34.410Z,15.60
2018-07-11T02:10:04.552Z,14.17
2018-07-11T02:12:34.651Z,14.80
2018-07-11T02:15:08.011Z,14.90
2018-07-11T02:17:39.634Z,15.70
2018-07-11T02:20:13.341Z,14.57
2018-07-11T02:22:44.183Z,15.37
2018-07-11T02:25:16.223Z,16.20
2018-07-11T02:27:45.866Z,16.70
2018-07-11T02:30:16.349Z,16.33
2018-07-11T02:32:46.437Z,15.33
2018-07-11T02:35:17.098Z,16.33
2018-07-11T02:37:47.121Z,16.63
2018-07-11T02:40:17.740Z,18.20
2018-07-11T02:42:48.117Z,15.00
2018-07-11T02:45:18.358Z,15.20
2018-07-11T02:47:48.902Z,18.37
2018-07-11T02:50:19.027Z,20.20
2018-07-11T02:52:49.184Z,20.87
2018-07-11T02:55:18.994Z,20.27
2018-07-11T02:57:49.518Z,21.00
2018-07-11T03:00:20.314Z,22.73
2018-07-11T03:02:50.629Z,20.03
2018-07-11T03:05:21.076Z,21.80
2018-07-11T03:07:51.770Z,20.93
2018-07-11T03:10:22.009Z,22.30
2018-07-11T03:12:52.381Z,23.43
2018-07-11T03:15:23.161Z,23.50
2018-07-11T03:17:53.586Z,22.90
2018-07-11T03:20:24.168Z,23.50
2018-07-11T03:22:54.603Z,21.67
2018-07-11T03:25:24.620Z,22.53
2018-07-11T03:27:56.814Z,22.57
2018-07-11T03:30:27.220Z,24.00
2018-07-11T03:32:57.442Z,23.83
2018-07-11T03:35:27.823Z,23.17
2018-07-11T03:37:58.057Z,21.90
2018-07-11T03:40:28.121Z,21.17
2018-07-11T03:42:58.385Z,23.20
2018-07-11T03:45:29.142Z,20.50
2018-07-11T03:47:59.348Z,22.33
2018-07-11T03:50:29.761Z,20.50
2018-07-11T03:52:59.832Z,20.90
2018-07-11T03:55:29.925Z,24.43
2018-07-11T03:57:59.560Z,22.13
2018-07-11T04:00:30.067Z,22.67
2018-07-11T04:03:00.238Z,23.67
2018-07-11T04:05:30.286Z,23.07
2018-07-11T04:08:00.418Z,24.63
2018-07-11T04:10:30.636Z,22.90
2018-07-11T04:13:01.864Z,22.03
2018-07-11T04:15:32.092Z,22.90
2018-07-11T04:18:01.976Z,23.37
2018-07-11T04:20:32.084Z,21.93
2018-07-11T04:23:02.508Z,21.67
2018-07-11T04:25:32.967Z,23.10
2018-07-11T04:28:04.220Z,22.23
2018-07-11T04:30:34.920Z,20.77
2018-07-11T04:33:05.804Z,21.90
2018-07-11T04:35:35.368Z,21.37
2018-07-11T04:38:05.629Z,21.50
2018-07-11T04:40:35.916Z,23.00
2018-07-11T04:43:07.538Z,21.43
2018-07-11T04:45:37.964Z,21.40
2018-07-11T04:48:09.221Z,21.03
2018-07-11T04:50:40.691Z,22.20
2018-07-11T04:53:12.613Z,24.20
2018-07-11T04:55:44.601Z,21.73
2018-07-11T04:58:15.655Z,22.30
2018-07-11T05:00:46.225Z,22.27
2018-07-11T05:03:17.042Z,22.10
2018-07-11T05:05:47.761Z,21.63
2018-07-11T05:08:18.556Z,21.97
2018-07-11T05:10:49.033Z,20.13
2018-07-11T05:13:20.362Z,21.03
2018-07-11T05:15:50.751Z,19.50
2018-07-11T05:18:21.376Z,19.03
2018-07-11T05:20:52.397Z,19.50
2018-07-11T05:23:22.392Z,17.77
2018-07-11T05:25:53.018Z,17.57
2018-07-11T05:28:23.658Z,20.97
2018-07-11T05:30:54.484Z,19.20
2018-07-11T05:33:25.531Z,20.23
2018-07-11T05:35:56.095Z,20.00
2018-07-11T05:38:26.502Z,22.50
2018-07-11T05:40:57.064Z,19.20
2018-07-11T05:43:27.899Z,21.63
2018-07-11T05:45:58.347Z,20.10
2018-07-11T05:48:28.771Z,18.47
2018-07-11T05:50:59.324Z,20.90
2018-07-11T05:53:29.995Z,20.97
2018-07-11T05:56:00.921Z,21.40
2018-07-11T05:58:32.310Z,21.67
2018-07-11T06:01:03.050Z,20.33
2018-07-11T06:03:33.641Z,18.73
2018-07-11T06:06:04.391Z,18.40
2018-07-11T06:08:35.368Z,16.77
2018-07-11T06:11:10.670Z,16.90
2018-07-11T06:13:41.538Z,17.17
2018-07-11T06:16:12.258Z,17.40
2018-07-11T06:18:43.009Z,17.40
2018-07-11T06:21:13.646Z,18.30
2018-07-11T06:23:43.958Z,17.27
2018-07-11T06:26:14.614Z,17.37
2018-07-11T06:28:45.142Z,19.33
2018-07-11T06:31:15.680Z,17.00
2018-07-11T06:33:46.123Z,16.60
2018-07-11T06:36:16.660Z,15.90
2018-07-11T06:38:47.264Z,17.40
2018-07-11T06:41:17.842Z,16.67
2018-07-11T06:43:49.337Z,17.40
2018-07-11T06:46:20.092Z,19.20
2018-07-11T06:48:50.324Z,16.83
2018-07-11T06:51:20.726Z,17.33
2018-07-11T06:53:51.401Z,16.80
2018-07-11T06:56:21.786Z,16.63
2018-07-11T06:58:52.728Z,16.30
2018-07-11T07:01:23.870Z,17.83
2018-07-11T07:03:54.681Z,16.60
2018-07-11T07:06:25.567Z,17.80
2018-07-11T07:08:56.393Z,18.47
2018-07-11T07:11:26.859Z,18.33
2018-07-11T07:13:57.818Z,18.40
2018-07-11T07:16:28.389Z,18.90
2018-07-11T07:18:58.361Z,18.27
2018-07-11T07:21:28.817Z,17.73
2018-07-11T07:23:59.478Z,18.10
2018-07-11T07:26:30.077Z,16.13
2018-07-11T07:29:01.789Z,15.73
2018-07-11T07:31:32.588Z,17.57
2018-07-11T07:34:03.119Z,17.13
2018-07-11T07:36:34.063Z,17.23
2018-07-11T07:39:04.159Z,18.10
2018-07-11T07:41:34.523Z,17.70
2018-07-11T07:44:05.418Z,16.63
2018-07-11T07:46:36.229Z,19.20
2018-07-11T07:49:06.837Z,19.07
2018-07-11T07:51:37.532Z,18.97
2018-07-11T07:54:08.503Z,19.10
2018-07-11T07:56:38.994Z,17.20
2018-07-11T07:59:09.891Z,18.27
2018-07-11T08:01:40.617Z,17.60
2018-07-11T08:04:12.277Z,18.10
2018-07-11T08:06:43.090Z,18.57
2018-07-11T08:09:13.937Z,18.37
2018-07-11T08:11:44.865Z,18.20
2018-07-11T08:14:15.922Z,17.50
2018-07-11T08:16:47.677Z,17.10
2018-07-11T08:19:18.213Z,17.77
2018-07-11T08:21:48.653Z,17.00
2018-07-11T08:24:29.667Z,19.43
2018-07-11T08:27:20.316Z,17.50
2018-07-11T08:29:58.326Z,19.17
2018-07-11T08:33:42.326Z,18.57
2018-07-11T08:36:23.912Z,17.40
2018-07-11T08:41:18.627Z,17.83
2018-07-11T08:48:08.547Z,18.33
2018-07-11T08:51:53.814Z,18.60
2018-07-11T08:56:39.172Z,19.23
2018-07-11T08:59:20.193Z,20.17
2018-07-11T09:04:10.006Z,18.43
2018-07-11T09:06:58.424Z,18.43
2018-07-11T09:11:45.802Z,18.93
2018-07-11T09:14:58.537Z,19.50
2018-07-11T09:17:41.254Z,19.97
2018-07-11T09:20:30.221Z,19.50
2018-07-11T09:24:19.441Z,20.10
2018-07-11T09:26:49.796Z,21.03
2018-07-11T09:29:20.581Z,20.00
2018-07-11T09:31:50.637Z,20.70
2018-07-11T09:34:21.662Z,21.43
2018-07-11T09:36:52.783Z,19.33
2018-07-11T09:39:23.619Z,19.20
2018-07-11T09:41:54.000Z,18.17
2018-07-11T09:44:25.727Z,19.03
2018-07-11T09:46:57.572Z,18.37
2018-07-11T09:49:28.633Z,20.03
2018-07-11T09:51:59.455Z,20.27
2018-07-11T09:54:29.852Z,20.40
2018-07-11T09:57:01.533Z,19.27
2018-07-11T09:59:33.289Z,19.40
2018-07-11T10:02:04.937Z,18.33
2018-07-11T10:04:35.770Z,19.00
2018-07-11T10:07:06.937Z,17.40
2018-07-11T10:09:37.297Z,19.23
2018-07-11T10:12:09.915Z,18.87
2018-07-11T10:14:40.418Z,19.33
2018-07-11T10:17:11.035Z,20.37
2018-07-11T10:19:41.988Z,21.00
2018-07-11T10:22:12.666Z,21.30
2018-07-11T10:24:44.679Z,20.00
2018-07-11T10:27:15.219Z,19.03
2018-07-11T10:29:46.311Z,20.80
2018-07-11T10:32:17.538Z,20.53
2018-07-11T10:34:48.418Z,20.90
2018-07-11T10:37:19.170Z,20.57
2018-07-11T10:39:49.915Z,18.70
2018-07-11T10:42:19.899Z,17.90
2018-07-11T10:44:51.008Z,17.80
2018-07-11T10:47:21.994Z,16.40
2018-07-11T10:49:53.747Z,17.95
2018-07-11T10:52:25.547Z,18.00
2018-07-11T10:54:56.939Z,17.00
2018-07-11T10:57:27.664Z,18.23
2018-07-11T10:59:58.565Z,16.80
2018-07-11T11:02:30.144Z,16.93
2018-07-11T11:05:00.769Z,18.17
2018-07-11T11:07:32.266Z,17.30
2018-07-11T11:10:03.074Z,16.90
2018-07-11T11:12:34.267Z,15.88
2018-07-11T11:15:05.068Z,15.47
2018-07-11T11:17:36.462Z,15.90
2018-07-11T11:20:06.870Z,15.87
2018-07-11T11:22:38.104Z,17.40
2018-07-11T11:25:09.463Z,17.43
2018-07-11T11:27:40.240Z,16.00
2018-07-11T11:30:10.817Z,17.40
2018-07-11T11:32:41.949Z,17.50
2018-07-11T11:35:12.470Z,16.40
2018-07-11T11:37:43.721Z,16.10
2018-07-11T11:40:14.208Z,16.70
2018-07-11T11:42:45.324Z,17.40
2018-07-11T11:45:15.765Z,16.40
2018-07-11T11:47:48.995Z,18.10
2018-07-11T11:50:20.906Z,16.53
2018-07-11T11:52:50.374Z,16.77
2018-07-11T11:55:21.280Z,17.53
2018-07-11T11:57:52.784Z,18.27
2018-07-11T12:00:23.843Z,16.60
2018-07-11T12:02:54.376Z,16.70
2018-07-11T12:05:24.378Z,16.43
2018-07-11T12:07:54.355Z,14.80
2018-07-11T12:10:25.278Z,15.40
2018-07-11T12:12:55.580Z,14.50
2018-07-11T12:15:30.032Z,15.07
2018-07-11T12:18:03.741Z,14.45
2018-07-11T12:20:34.403Z,14.10
2018-07-11T12:23:05.004Z,14.63
2018-07-11T12:25:38.012Z,15.03
2018-07-11T12:28:08.891Z,15.70
2018-07-11T12:30:39.526Z,14.97
2018-07-11T12:33:10.729Z,14.73
2018-07-11T12:35:47.225Z,14.80
2018-07-11T12:38:20.273Z,15.60
2018-07-11T12:40:51.026Z,15.80
2018-07-11T12:43:21.551Z,15.33
2018-07-11T12:45:51.269Z,15.43
2018-07-11T12:48:27.244Z,15.07
2018-07-11T12:50:58.027Z,14.37
2018-07-11T12:53:29.301Z,15.10
2018-07-11T12:59:49.915Z,14.37
2018-07-11T13:02:20.426Z,16.00
2018-07-11T13:04:51.036Z,15.10
2018-07-11T13:07:21.749Z,15.83
2018-07-11T13:09:52.117Z,14.87
2018-07-11T13:12:23.012Z,15.70
2018-07-11T13:14:53.834Z,15.20
2018-07-11T13:17:24.518Z,14.70
2018-07-11T13:19:55.189Z,14.37
2018-07-11T13:22:25.732Z,14.40
2018-07-11T13:24:56.308Z,15.20
2018-07-11T13:27:27.252Z,14.70
2018-07-11T13:29:57.972Z,15.03
2018-07-11T13:32:28.532Z,14.93
2018-07-11T13:34:58.917Z,15.80
2018-07-11T13:37:29.797Z,15.30
2018-07-11T13:40:01.081Z,15.50
2018-07-11T13:42:31.813Z,16.00
2018-07-11T13:45:03.749Z,16.20
2018-07-11T13:47:34.612Z,15.93
2018-07-11T13:50:06.853Z,15.67
2018-07-11T13:52:38.452Z,16.00
2018-07-11T13:55:09.132Z,16.30
2018-07-11T13:57:39.765Z,16.30
2018-07-11T14:00:13.334Z,17.97
2018-07-11T14:02:44.676Z,18.70
2018-07-11T14:05:17.717Z,24.10
2018-07-11T14:07:49.845Z,25.23
2018-07-11T14:10:21.253Z,24.27
2018-07-11T14:12:52.141Z,21.20
2018-07-11T14:15:25.573Z,19.20
2018-07-11T14:17:58.197Z,19.80
2018-07-11T14:20:28.893Z,19.43
2018-07-11T14:23:05.608Z,19.50
2018-07-11T14:25:38.724Z,19.23
2018-07-11T14:28:12.978Z,16.70
2018-07-11T14:30:46.936Z,16.73
2018-07-11T14:33:17.366Z,17.97
2018-07-11T14:35:48.565Z,18.23
2018-07-11T14:38:22.815Z,17.93
2018-07-11T14:40:54.048Z,18.77
2018-07-11T14:43:24.885Z,23.73
2018-07-11T14:45:56.277Z,18.80
2018-07-11T14:48:27.076Z,14.57
2018-07-11T14:50:58.645Z,15.23
2018-07-11T14:53:29.557Z,21.77
2018-07-11T14:56:00.196Z,14.27
2018-07-11T14:58:31.291Z,15.17
2018-07-11T15:01:02.006Z,13.40
2018-07-11T15:03:33.453Z,15.20
2018-07-11T15:06:04.395Z,14.93
2018-07-11T15:08:34.306Z,15.60
2018-07-11T15:11:05.156Z,15.00
2018-07-11T15:13:36.326Z,15.83
2018-07-11T15:16:07.092Z,15.27
2018-07-11T15:18:37.669Z,14.53
2018-07-11T15:21:09.594Z,15.87
2018-07-11T15:23:41.172Z,16.03
2018-07-11T15:26:14.372Z,14.90
2018-07-11T15:28:44.894Z,16.60
2018-07-11T15:31:14.809Z,15.33
2018-07-11T15:33:46.772Z,14.70
2018-07-11T15:36:17.332Z,14.03
2018-07-11T15:38:48.364Z,15.70
2018-07-11T15:41:19.537Z,15.20
2018-07-11T15:43:50.296Z,14.63
2018-07-11T15:46:21.637Z,14.33
2018-07-11T15:48:52.772Z,16.23
2018-07-11T15:51:23.374Z,15.93
2018-07-11T15:53:53.929Z,14.60
2018-07-11T15:56:24.564Z,15.97
2018-07-11T15:59:02.839Z,14.60
2018-07-11T16:01:34.052Z,15.20
2018-07-11T16:04:06.168Z,15.80
2018-07-11T16:06:37.364Z,14.97
2018-07-11T16:09:07.783Z,14.73
2018-07-11T16:11:38.775Z,16.10
2018-07-11T16:14:09.562Z,16.30
2018-07-11T16:16:40.525Z,16.80
2018-07-11T16:19:11.829Z,17.23
2018-07-11T16:21:43.055Z,17.23
2018-07-11T16:24:14.084Z,16.70
2018-07-11T16:26:44.895Z,17.10
2018-07-11T16:29:15.845Z,19.07
2018-07-11T16:31:46.618Z,16.67
2018-07-11T16:34:17.812Z,17.93
2018-07-11T16:36:48.695Z,16.43
2018-07-11T16:39:28.204Z,16.10
2018-07-11T16:42:00.685Z,17.20
2018-07-11T16:44:31.796Z,18.10
2018-07-11T16:47:04.964Z,15.20
2018-07-11T16:49:36.806Z,15.87
2018-07-11T16:52:08.040Z,15.07
2018-07-11T16:54:39.444Z,13.83
2018-07-11T16:57:10.555Z,14.90
2018-07-11T16:59:49.845Z,15.20
2018-07-11T17:02:25.124Z,14.80
2018-07-11T17:04:57.461Z,14.07
2018-07-11T17:07:28.630Z,15.40
2018-07-11T17:10:05.336Z,15.40
2018-07-11T17:12:36.424Z,15.43
2018-07-11T17:15:07.113Z,15.90
2018-07-11T17:17:38.664Z,15.20
2018-07-11T17:20:11.529Z,15.27
2018-07-11T17:22:49.688Z,15.00
2018-07-11T17:25:22.788Z,15.30
2018-07-11T17:28:03.976Z,16.60
2018-07-11T17:30:44.267Z,16.60
2018-07-11T17:33:15.263Z,15.63
2018-07-11T17:35:54.269Z,15.40
2018-07-11T17:38:29.286Z,15.20
2018-07-11T17:41:03.955Z,16.93
2018-07-11T17:43:43.933Z,18.10
2018-07-11T17:46:32.436Z,41.33
2018-07-11T17:49:22.739Z,15.50
2018-07-11T17:52:18.373Z,14.57
2018-07-11T17:55:01.195Z,13.77
2018-07-11T18:00:57.956Z,14.20
2018-07-11T18:03:46.164Z,14.70
2018-07-11T18:06:28.576Z,13.80
2018-07-11T18:09:15.476Z,13.50
2018-07-11T18:11:57.937Z,14.63
2018-07-11T18:15:41.669Z,14.53
2018-07-11T18:18:27.751Z,15.00
2018-07-11T18:22:11.667Z,13.67
2018-07-11T18:38:19.875Z,12.80
2018-07-11T18:41:01.802Z,12.57
2018-07-11T18:43:49.635Z,13.77
2018-07-11T18:47:28.692Z,13.40
2018-07-11T18:52:12.439Z,14.50
2018-07-11T18:55:05.309Z,13.70
2018-07-11T18:58:40.735Z,14.87
2018-07-11T19:02:20.176Z,13.63
2018-07-11T19:05:22.531Z,14.87
2018-07-11T19:08:01.278Z,14.43
2018-07-11T19:23:38.096Z,15.63
2018-07-11T19:26:22.529Z,14.20
2018-07-11T19:30:04.992Z,13.87
2018-07-11T19:32:53.614Z,15.13
2018-07-11T19:35:46.447Z,13.43
2018-07-11T19:39:51.053Z,14.20
2018-07-11T19:42:30.244Z,13.93
2018-07-11T19:47:17.481Z,15.17
2018-07-11T19:49:59.752Z,14.40
2018-07-11T19:52:45.480Z,15.43
2018-07-11T19:55:31.932Z,14.80
2018-07-11T19:58:02.617Z,16.00
2018-07-11T20:00:33.747Z,15.10
2018-07-11T20:03:04.417Z,16.37
2018-07-11T20:05:34.801Z,14.43
2018-07-11T20:08:05.753Z,16.70
2018-07-11T20:10:36.131Z,13.73
2018-07-11T20:13:07.037Z,13.90
2018-07-11T20:15:39.151Z,13.80
2018-07-11T20:18:22.822Z,16.03
2018-07-11T20:20:53.558Z,14.60
2018-07-11T20:23:26.079Z,15.70
2018-07-11T20:25:57.113Z,14.17
2018-07-11T20:28:29.119Z,13.57
2018-07-11T20:31:00.259Z,12.90
2018-07-11T20:33:30.631Z,14.20
2018-07-11T20:36:04.375Z,14.00
2018-07-11T20:38:35.095Z,14.07
2018-07-11T20:41:05.815Z,13.57
2018-07-11T20:43:38.871Z,14.80
2018-07-11T20:46:10.094Z,15.80
2018-07-11T20:48:41.565Z,15.23
2018-07-11T20:51:16.194Z,16.93
2018-07-11T20:53:46.650Z,17.17
2018-07-11T20:56:16.893Z,16.57
2018-07-11T20:58:57.821Z,18.13
2018-07-11T21:01:39.176Z,16.87
2018-07-11T21:04:35.324Z,18.97
2018-07-11T21:08:26.761Z,19.63
2018-07-11T21:21:13.029Z,18.67
2018-07-11T21:23:43.629Z,17.10
2018-07-11T21:26:13.989Z,18.13
2018-07-11T21:28:45.189Z,17.77
2018-07-11T21:31:15.709Z,18.77
2018-07-11T21:33:47.274Z,17.50
2018-07-11T21:36:18.117Z,18.17
2018-07-11T21:38:48.471Z,17.90
2018-07-11T21:41:19.405Z,19.33
2018-07-11T21:43:50.245Z,18.90
2018-07-11T21:46:20.869Z,22.53
2018-07-11T21:48:51.381Z,20.77
2018-07-11T21:51:22.005Z,21.67
2018-07-11T21:53:52.405Z,24.00
2018-07-11T21:56:23.541Z,24.03
2018-07-11T21:58:54.246Z,22.77
2018-07-11T22:01:25.725Z,25.10
2018-07-11T22:03:56.310Z,24.57
2018-07-11T22:06:26.821Z,24.03
2018-07-11T22:08:57.525Z,23.50
2018-07-11T22:11:28.015Z,20.90
2018-07-11T22:13:58.557Z,21.93
2018-07-11T22:16:28.886Z,21.77
2018-07-11T22:18:59.045Z,21.07
2018-07-11T22:21:27.336Z,21.57
2018-07-11T22:23:55.670Z,20.30
2018-07-11T22:26:23.782Z,21.53
2018-07-11T22:28:52.141Z,22.83
2018-07-11T22:31:21.165Z,19.80
2018-07-11T22:33:50.669Z,19.60
2018-07-11T22:36:19.295Z,20.10
2018-07-11T22:38:47.925Z,21.87
2018-07-11T22:41:16.685Z,21.17
2018-07-11T22:43:45.109Z,21.67
2018-07-11T22:46:14.125Z,20.87
2018-07-11T22:48:43.052Z,21.43
2018-07-11T22:51:11.593Z,21.90
2018-07-11T22:53:40.158Z,21.13
2018-07-11T22:56:09.294Z,21.47
2018-07-11T22:58:38.232Z,19.03
2018-07-11T23:01:06.707Z,21.10
2018-07-11T23:03:36.576Z,20.97
2018-07-11T23:06:05.434Z,20.73
2018-07-11T23:08:33.815Z,20.17
2018-07-11T23:11:02.583Z,20.60
2018-07-11T23:13:30.967Z,19.10
2018-07-11T23:16:00.055Z,19.07
2018-07-11T23:18:28.438Z,20.70
2018-07-11T23:20:57.023Z,20.07
2018-07-11T23:23:25.594Z,20.77
2018-07-11T23:25:54.323Z,20.47
2018-07-11T23:28:22.889Z,21.50
2018-07-11T23:30:52.491Z,20.87
2018-07-11T23:33:21.385Z,19.93
2018-07-11T23:35:49.753Z,19.07
2018-07-11T23:38:18.337Z,21.07
2018-07-11T23:40:46.810Z,19.40
2018-07-11T23:43:15.384Z,19.60
2018-07-11T23:45:44.080Z,20.17
2018-07-11T23:48:12.665Z,19.23
2018-07-11T23:50:41.042Z,19.13
2018-07-11T23:53:09.969Z,20.80
2018-07-11T23:55:38.512Z,19.70
2018-07-11T23:58:08.825Z,19.63
